15 Dec 2019 17:58 UTC 2019349+17:58 UTC

Overview Datums Bench Marks Data Query Site Visit Daily QC Messages Attributes

171: National Park Service - Bird Island

27° 29' 4" N   97° 19' 5" W
NPSBI
United States National Park Service United States National Park Service

Station Information

National Park Service - Bird Island
National Park Service - Bird Island
more pictures
 
Station Name:National Park Service - Bird Island
DNR ID:171
Location:27° 29' 4" N, 97° 19' 5" W

Water Level Forecasts

Latest Observations

Series Metric English Marine Observed at
Water Temperature 18.1 °C 64.6 °F 64.6 °F Dec 15 11:42 CST
00h07m ago
Salinity 33.200 psu 33.200 psu 33.200 psu Dec 15 11:42 CST
00h07m ago
Dissolved Oxygen 8.59 mg/L 0.000536 lb/ft3 0.000536 lb/ft3 Dec 15 11:42 CST
00h07m ago

Maps

National Park Service - Bird Island
All Stations in Area
Entire Network
 

Recent Observations

Date/Time Water
Temp (°F)
Sal (psu) pH (pH) Turb (ntu) DO (lb/ft3)
Dec 15 11:00 CST 64.0 33.200 0.000513
Dec 15 10:00 CST 63.3 33.200 0.000488
Dec 15 09:00 CST 63.0 33.200 0.000458
Dec 15 08:00 CST 62.8 33.100 0.000443
Dec 15 07:00 CST 62.8 33.100 0.000443
Dec 15 06:00 CST 62.8 33.000 0.000459
Dec 15 05:00 CST 63.0 32.900 0.000459
Dec 15 04:00 CST 63.0 32.900 0.000467
Dec 15 03:00 CST 63.0 32.800 0.000489
Dec 15 02:00 CST 63.0 32.800 0.000497
Dec 15 01:00 CST 62.6 32.800 0.000491
Dec 15 00:00 CST 62.4 32.700 0.000505
Dec 14 23:00 CST 62.2 32.700 0.000515
Dec 14 22:00 CST 62.2 32.700 0.000528
Dec 14 21:00 CST 62.4 32.700 0.000535
Dec 14 20:00 CST 62.6 32.600 0.000543
Dec 14 19:00 CST 63.1 32.600 0.000557
Dec 14 18:00 CST 62.8 32.600 0.000577
Dec 14 17:00 CST 63.5 32.500 0.000631
Dec 14 16:00 CST 63.3 32.400 0.000662
Dec 14 15:00 CST 63.0 32.300 0.000606
Dec 14 14:00 CST 62.4 32.300 0.000581
Dec 14 13:00 CST 61.7 32.300 0.000616
Dec 14 12:00 CST 61.2 32.200 0.000647
Dec 14 11:00 CST 60.4 32.200 0.000614

Historical Data Availability